Time;durP1;ratioP1;P1;durP2;ratioP2;P2;SDS_P1;SDS_P2;PMS_P1;PMS_P2;Temp;Humidity;BMP_temperature;BMP_pressure;BME280_temperature;BME280_humidity;BME280_pressure;Samples;Min_cycle;Max_cycle;Signal;HPM_P1;HPM_P2
2024/04/25 00:01:55;;;;;;;1.70;0.70;;;;;;;;;;5392332;26;20009;-57
2024/04/25 00:04:21;;;;;;;2.08;0.90;;;;;;;;;;5403427;26;20003;-56
2024/04/25 00:06:46;;;;;;;1.48;0.80;;;;;;;;;;5406678;26;20010;-57
2024/04/25 00:09:11;;;;;;;1.30;0.70;;;;;;;;;;5408216;26;20031;-57
2024/04/25 00:11:37;;;;;;;2.00;0.90;;;;;;;;;;5399236;26;19997;-56
2024/04/25 00:14:02;;;;;;;1.95;0.80;;;;;;;;;;5391645;26;20673;-56
2024/04/25 00:16:27;;;;;;;1.58;0.85;;;;;;;;;;5400177;26;20460;-56
2024/04/25 00:18:52;;;;;;;1.55;0.80;;;;;;;;;;5408010;26;20023;-56
2024/04/25 00:21:18;;;;;;;1.48;0.90;;;;;;;;;;5407592;26;20004;-56
2024/04/25 00:23:43;;;;;;;2.85;0.90;;;;;;;;;;5385919;26;20004;-56
2024/04/25 00:26:08;;;;;;;1.90;0.80;;;;;;;;;;5395348;26;20046;-57
2024/04/25 00:28:35;;;;;;;1.33;0.80;;;;;;;;;;5407474;26;19999;-57
2024/04/25 00:31:00;;;;;;;1.75;0.68;;;;;;;;;;5405620;26;20000;-56
2024/04/25 00:33:25;;;;;;;2.13;0.73;;;;;;;;;;5387813;26;20000;-56
2024/04/25 00:35:51;;;;;;;2.78;0.70;;;;;;;;;;5409936;26;20007;-56
2024/04/25 00:38:16;;;;;;;1.88;0.90;;;;;;;;;;5402677;26;20000;-58
2024/04/25 00:40:41;;;;;;;2.13;0.90;;;;;;;;;;5399732;26;19997;-59
2024/04/25 00:43:07;;;;;;;2.35;0.88;;;;;;;;;;5410011;26;20000;-57
2024/04/25 00:45:32;;;;;;;2.55;1.17;;;;;;;;;;5410552;26;20006;-57
2024/04/25 00:47:58;;;;;;;1.85;0.63;;;;;;;;;;5406872;26;20460;-57
2024/04/25 00:50:23;;;;;;;1.30;0.70;;;;;;;;;;5397744;26;19995;-57
2024/04/25 00:52:49;;;;;;;1.85;0.85;;;;;;;;;;5388006;26;19996;-57
2024/04/25 00:55:14;;;;;;;1.70;0.88;;;;;;;;;;5400555;26;20006;-57
2024/04/25 00:57:39;;;;;;;2.63;0.80;;;;;;;;;;5410359;26;20010;-56
2024/04/25 01:00:05;;;;;;;1.92;0.95;;;;;;;;;;5395988;26;20019;-56
2024/04/25 01:02:30;;;;;;;1.38;0.70;;;;;;;;;;5400368;26;19995;-57
2024/04/25 01:04:56;;;;;;;2.05;0.80;;;;;;;;;;5408935;26;20112;-56
2024/04/25 01:07:21;;;;;;;1.73;0.73;;;;;;;;;;5406583;26;20332;-56
2024/04/25 01:09:46;;;;;;;1.73;0.70;;;;;;;;;;5410897;26;20000;-56
2024/04/25 01:12:12;;;;;;;1.42;0.70;;;;;;;;;;5400694;26;19995;-56
2024/04/25 01:14:37;;;;;;;2.00;1.00;;;;;;;;;;5395131;26;19995;-57
2024/04/25 01:17:02;;;;;;;2.00;0.80;;;;;;;;;;5409386;26;20052;-56
2024/04/25 01:19:28;;;;;;;1.75;0.70;;;;;;;;;;5408534;26;20000;-56
2024/04/25 01:21:53;;;;;;;1.13;0.60;;;;;;;;;;5400287;26;20402;-57
2024/04/25 01:24:20;;;;;;;1.13;0.50;;;;;;;;;;5400755;26;19995;-56
2024/04/25 01:26:46;;;;;;;2.72;0.98;;;;;;;;;;5402812;26;19992;-56
2024/04/25 01:29:13;;;;;;;1.00;0.60;;;;;;;;;;5407577;26;20006;-57
2024/04/25 01:31:39;;;;;;;3.15;0.77;;;;;;;;;;5396603;26;20007;-57
2024/04/25 01:34:05;;;;;;;2.42;0.88;;;;;;;;;;5382907;26;20016;-56
2024/04/25 01:36:30;;;;;;;1.98;0.60;;;;;;;;;;5406368;26;20744;-56
2024/04/25 01:38:55;;;;;;;2.40;0.82;;;;;;;;;;5393468;26;19996;-56
2024/04/25 01:41:21;;;;;;;1.10;0.65;;;;;;;;;;5402056;26;20015;-57
2024/04/25 01:43:46;;;;;;;1.45;0.75;;;;;;;;;;5398147;26;20000;-57
2024/04/25 01:46:11;;;;;;;2.55;0.90;;;;;;;;;;5404833;26;20010;-57
2024/04/25 01:48:36;;;;;;;1.90;0.55;;;;;;;;;;5389493;26;20033;-57
2024/04/25 01:51:02;;;;;;;1.90;0.70;;;;;;;;;;5406994;26;20011;-57
2024/04/25 01:53:27;;;;;;;1.70;0.75;;;;;;;;;;5376613;26;20004;-57
2024/04/25 01:55:53;;;;;;;1.48;0.70;;;;;;;;;;5397608;26;20011;-57
2024/04/25 01:58:18;;;;;;;2.70;0.77;;;;;;;;;;5402390;26;20395;-57
2024/04/25 02:00:44;;;;;;;1.60;0.80;;;;;;;;;;5398354;26;20011;-57
2024/04/25 02:03:09;;;;;;;1.30;0.70;;;;;;;;;;5406545;26;20385;-57
2024/04/25 02:05:34;;;;;;;1.90;0.70;;;;;;;;;;5408172;26;20397;-58
2024/04/25 02:07:59;;;;;;;1.33;0.73;;;;;;;;;;5407933;26;20004;-58
2024/04/25 02:10:25;;;;;;;1.45;0.80;;;;;;;;;;5405132;26;19996;-58
2024/04/25 02:12:50;;;;;;;1.70;0.70;;;;;;;;;;5399927;26;20093;-57
2024/04/25 02:15:15;;;;;;;1.73;0.80;;;;;;;;;;5407152;26;19995;-58
2024/04/25 02:17:41;;;;;;;2.22;0.80;;;;;;;;;;5408053;26;20073;-58
2024/04/25 02:25:14;;;;;;;1.77;0.88;;;;;;;;;;5420611;26;20014;-58
2024/04/25 02:25:36;;;;;;;1.63;0.80;;;;;;;;;;5409500;26;20077;-58
2024/04/25 02:28:01;;;;;;;3.33;0.80;;;;;;;;;;5403064;26;20016;-58
2024/04/25 02:30:27;;;;;;;1.67;0.60;;;;;;;;;;5396926;26;20488;-58
2024/04/25 02:32:52;;;;;;;1.35;0.75;;;;;;;;;;5407579;26;20733;-59
2024/04/25 02:35:17;;;;;;;1.45;0.90;;;;;;;;;;5405990;26;20038;-58
2024/04/25 02:37:43;;;;;;;3.55;1.40;;;;;;;;;;5408753;26;20607;-58
2024/04/25 02:40:08;;;;;;;1.73;0.63;;;;;;;;;;5387825;26;20004;-58
2024/04/25 02:42:33;;;;;;;1.33;0.70;;;;;;;;;;5403858;26;20011;-57
2024/04/25 02:44:59;;;;;;;1.83;0.65;;;;;;;;;;5408630;26;19995;-58
2024/04/25 02:47:24;;;;;;;1.52;0.68;;;;;;;;;;5404565;26;20003;-58
2024/04/25 02:49:49;;;;;;;1.58;0.68;;;;;;;;;;5390797;26;20011;-58
2024/04/25 02:52:15;;;;;;;1.58;0.70;;;;;;;;;;5387483;26;19999;-59
2024/04/25 02:54:40;;;;;;;1.67;0.55;;;;;;;;;;5388260;26;19996;-58
2024/04/25 02:57:05;;;;;;;1.75;0.70;;;;;;;;;;5405095;26;20413;-58
2024/04/25 02:59:30;;;;;;;1.27;0.65;;;;;;;;;;5395412;26;19996;-58
2024/04/25 03:01:56;;;;;;;1.67;0.70;;;;;;;;;;5397048;26;20011;-59
2024/04/25 03:04:21;;;;;;;1.63;0.70;;;;;;;;;;5407594;26;19996;-58
2024/04/25 03:06:46;;;;;;;1.50;0.80;;;;;;;;;;5405345;26;20007;-58
2024/04/25 03:09:12;;;;;;;1.42;0.60;;;;;;;;;;5396660;26;20053;-58
2024/04/25 03:11:37;;;;;;;1.23;0.50;;;;;;;;;;5394807;26;19996;-57
2024/04/25 03:14:03;;;;;;;1.60;0.80;;;;;;;;;;5407507;26;19995;-58
2024/04/25 03:16:29;;;;;;;1.30;0.70;;;;;;;;;;5407172;26;20431;-58
2024/04/25 03:18:54;;;;;;;1.30;0.68;;;;;;;;;;5396465;26;19999;-58
2024/04/25 03:21:19;;;;;;;1.42;0.82;;;;;;;;;;5399614;26;20012;-57
2024/04/25 03:23:45;;;;;;;1.40;0.80;;;;;;;;;;5396171;26;20018;-58
2024/04/25 03:26:10;;;;;;;2.03;0.80;;;;;;;;;;5407650;26;20121;-59
2024/04/25 03:28:36;;;;;;;1.73;0.60;;;;;;;;;;5401917;26;20011;-58
2024/04/25 03:31:01;;;;;;;3.55;1.00;;;;;;;;;;5385589;26;20010;-58
2024/04/25 03:33:27;;;;;;;5.70;1.40;;;;;;;;;;5386697;26;20000;-58
2024/04/25 03:35:52;;;;;;;2.55;0.95;;;;;;;;;;5403150;26;20019;-58
2024/04/25 03:38:18;;;;;;;3.88;0.90;;;;;;;;;;5395613;26;20052;-57
2024/04/25 03:40:43;;;;;;;1.70;0.63;;;;;;;;;;5397520;26;20012;-57
2024/04/25 03:43:08;;;;;;;1.23;0.70;;;;;;;;;;5407475;26;20008;-58
2024/04/25 03:45:34;;;;;;;2.15;0.90;;;;;;;;;;5401037;26;20011;-57
2024/04/25 03:47:59;;;;;;;2.70;0.88;;;;;;;;;;5404969;26;20003;-57
2024/04/25 03:50:24;;;;;;;1.90;0.68;;;;;;;;;;5403980;26;20133;-59
2024/04/25 03:52:50;;;;;;;4.30;0.80;;;;;;;;;;5404263;26;20468;-58
2024/04/25 03:55:15;;;;;;;4.93;0.70;;;;;;;;;;5397406;26;20010;-58
2024/04/25 03:57:41;;;;;;;1.83;0.80;;;;;;;;;;5402883;26;19991;-58
2024/04/25 04:00:06;;;;;;;3.88;0.90;;;;;;;;;;5390193;26;20015;-58
2024/04/25 04:02:32;;;;;;;2.72;0.60;;;;;;;;;;5392128;26;19996;-58
2024/04/25 04:04:57;;;;;;;1.83;0.80;;;;;;;;;;5405040;26;20365;-58
2024/04/25 04:07:22;;;;;;;2.20;1.10;;;;;;;;;;5386880;26;20018;-58
2024/04/25 04:09:48;;;;;;;1.30;0.70;;;;;;;;;;5394501;26;20557;-58
2024/04/25 04:12:13;;;;;;;1.77;0.60;;;;;;;;;;5401038;26;19999;-58
2024/04/25 04:14:39;;;;;;;2.47;1.10;;;;;;;;;;5394178;26;20044;-58
2024/04/25 04:17:04;;;;;;;3.42;0.80;;;;;;;;;;5399737;26;20003;-59
2024/04/25 04:19:29;;;;;;;1.42;0.55;;;;;;;;;;5406079;26;20141;-58
2024/04/25 04:21:55;;;;;;;1.77;0.77;;;;;;;;;;5409695;26;20003;-58
2024/04/25 04:24:20;;;;;;;1.60;0.70;;;;;;;;;;5400336;26;20115;-58
2024/04/25 04:26:45;;;;;;;1.50;0.73;;;;;;;;;;5395585;26;20331;-59
2024/04/25 04:29:11;;;;;;;2.63;0.95;;;;;;;;;;5408401;26;20596;-58
2024/04/25 04:31:36;;;;;;;1.38;0.70;;;;;;;;;;5398814;26;20007;-58
2024/04/25 04:34:01;;;;;;;2.00;0.68;;;;;;;;;;5393115;26;20073;-58
2024/04/25 04:36:31;;;;;;;1.40;0.60;;;;;;;;;;5401983;26;20011;-58
2024/04/25 04:38:57;;;;;;;1.50;0.50;;;;;;;;;;5406220;26;20018;-57
2024/04/25 04:41:22;;;;;;;2.08;0.60;;;;;;;;;;5391181;26;20004;-59
2024/04/25 04:43:50;;;;;;;2.45;0.65;;;;;;;;;;5411084;26;20014;-58
2024/04/25 04:46:15;;;;;;;2.95;0.80;;;;;;;;;;5408935;26;20003;-58
2024/04/25 04:48:45;;;;;;;2.25;0.68;;;;;;;;;;5390805;26;20082;-57
2024/04/25 04:51:10;;;;;;;;;;;;;;;;;;5397668;26;20004;-58
2024/04/25 04:53:35;;;;;;;1.80;0.80;;;;;;;;;;5398274;26;19926;-56
2024/04/25 04:56:01;;;;;;;2.40;0.75;;;;;;;;;;5409439;26;20003;-57
2024/04/25 04:58:26;;;;;;;2.50;0.80;;;;;;;;;;5408467;26;20076;-56
2024/04/25 05:00:51;;;;;;;2.25;0.85;;;;;;;;;;5391841;26;19995;-57
2024/04/25 05:03:17;;;;;;;4.07;0.60;;;;;;;;;;5393859;26;20003;-57
2024/04/25 05:05:42;;;;;;;3.25;1.05;;;;;;;;;;5400145;26;19995;-57
2024/04/25 05:08:07;;;;;;;2.65;0.60;;;;;;;;;;5363620;26;20489;-57
2024/04/25 05:10:33;;;;;;;0.80;0.40;;;;;;;;;;5384101;26;20019;-58
2024/04/25 05:12:58;;;;;;;2.08;0.90;;;;;;;;;;5396668;26;20047;-57
2024/04/25 05:15:23;;;;;;;2.67;0.88;;;;;;;;;;5396460;26;20003;-58
2024/04/25 05:17:49;;;;;;;2.75;0.70;;;;;;;;;;5396207;26;20457;-56
2024/04/25 05:20:14;;;;;;;1.52;0.73;;;;;;;;;;5391845;26;20019;-60
2024/04/25 05:22:40;;;;;;;2.30;0.75;;;;;;;;;;5399640;26;20005;-56
2024/04/25 05:25:08;;;;;;;1.95;0.65;;;;;;;;;;5394572;26;20128;-57
2024/04/25 05:27:36;;;;;;;3.47;0.80;;;;;;;;;;5397275;26;19996;-59
2024/04/25 05:30:02;;;;;;;1.98;0.70;;;;;;;;;;5392558;26;20011;-58
2024/04/25 05:32:27;;;;;;;1.40;0.80;;;;;;;;;;5391425;26;20680;-58
2024/04/25 05:34:56;;;;;;;1.45;0.68;;;;;;;;;;5393184;26;20612;-58
2024/04/25 05:37:22;;;;;;;2.25;0.90;;;;;;;;;;5390991;26;20452;-59
2024/04/25 05:39:47;;;;;;;2.28;0.70;;;;;;;;;;5391708;26;20022;-58
2024/04/25 05:42:13;;;;;;;1.48;0.80;;;;;;;;;;5395933;26;20320;-58
2024/04/25 05:44:38;;;;;;;2.20;0.70;;;;;;;;;;5401711;26;20310;-58
2024/04/25 05:47:04;;;;;;;1.83;0.70;;;;;;;;;;5400787;26;20101;-58
2024/04/25 05:49:29;;;;;;;2.45;0.60;;;;;;;;;;5395486;26;19996;-58
2024/04/25 05:51:54;;;;;;;2.20;0.80;;;;;;;;;;5401374;26;20007;-58
2024/04/25 05:54:19;;;;;;;2.67;0.77;;;;;;;;;;5388753;26;20036;-58
2024/04/25 05:56:45;;;;;;;1.55;0.60;;;;;;;;;;5406284;26;20153;-58
2024/04/25 05:59:12;;;;;;;2.38;0.75;;;;;;;;;;5396251;26;20027;-59
2024/04/25 06:01:37;;;;;;;2.50;0.70;;;;;;;;;;5394110;26;20011;-60
2024/04/25 06:04:02;;;;;;;2.28;0.70;;;;;;;;;;5396474;26;20000;-58
2024/04/25 06:06:28;;;;;;;2.40;0.68;;;;;;;;;;5396890;26;20563;-58
2024/04/25 06:08:53;;;;;;;1.35;0.80;;;;;;;;;;5395153;26;20022;-57
2024/04/25 06:11:19;;;;;;;2.58;0.80;;;;;;;;;;5403578;26;20004;-59
2024/04/25 06:13:44;;;;;;;1.65;0.73;;;;;;;;;;5399391;26;20000;-58
2024/04/25 06:16:10;;;;;;;2.13;0.70;;;;;;;;;;5394244;26;20026;-59
2024/04/25 06:18:35;;;;;;;1.45;0.75;;;;;;;;;;5399956;26;19999;-61
2024/04/25 06:21:00;;;;;;;1.50;0.75;;;;;;;;;;5391578;26;19992;-59
2024/04/25 06:23:26;;;;;;;1.45;0.65;;;;;;;;;;5394791;26;20486;-58
2024/04/25 06:25:51;;;;;;;1.20;0.63;;;;;;;;;;5386033;26;20077;-60
2024/04/25 06:28:16;;;;;;;2.15;0.70;;;;;;;;;;5396872;26;20091;-61
2024/04/25 06:30:42;;;;;;;1.23;0.73;;;;;;;;;;5384608;26;20026;-58
2024/04/25 06:33:07;;;;;;;1.55;0.60;;;;;;;;;;5395569;26;20011;-59
2024/04/25 06:35:32;;;;;;;1.50;0.70;;;;;;;;;;5387077;26;20012;-59
2024/04/25 06:37:57;;;;;;;3.20;0.88;;;;;;;;;;5387693;26;20085;-58
2024/04/25 06:40:23;;;;;;;2.00;0.77;;;;;;;;;;5381128;26;20035;-60
2024/04/25 06:42:48;;;;;;;3.00;1.00;;;;;;;;;;5388102;26;20326;-60
2024/04/25 06:45:16;;;;;;;1.73;0.88;;;;;;;;;;5391654;26;19999;-59
2024/04/25 06:47:41;;;;;;;1.98;0.95;;;;;;;;;;5392303;26;19999;-60
2024/04/25 06:50:07;;;;;;;3.60;0.73;;;;;;;;;;5387901;26;20000;-58
2024/04/25 06:52:32;;;;;;;2.58;0.80;;;;;;;;;;5387853;26;20007;-57
2024/04/25 06:54:57;;;;;;;1.02;0.60;;;;;;;;;;5387006;26;19995;-58
2024/04/25 06:57:23;;;;;;;3.00;0.88;;;;;;;;;;5396622;26;20687;-58
2024/04/25 06:59:50;;;;;;;1.65;0.73;;;;;;;;;;5387262;26;20003;-57
2024/04/25 07:02:19;;;;;;;0.90;0.60;;;;;;;;;;5398400;26;19996;-59
2024/04/25 07:04:44;;;;;;;2.38;0.80;;;;;;;;;;5387056;26;20023;-58
2024/04/25 07:07:09;;;;;;;1.58;0.77;;;;;;;;;;5391335;26;20535;-57
2024/04/25 07:09:37;;;;;;;2.53;0.90;;;;;;;;;;5389390;26;20008;-58
2024/04/25 07:12:02;;;;;;;1.25;0.63;;;;;;;;;;5383487;26;20391;-57
2024/04/25 07:14:27;;;;;;;2.45;0.70;;;;;;;;;;5387428;26;20010;-58
2024/04/25 07:16:53;;;;;;;3.22;1.10;;;;;;;;;;5386740;26;20003;-57
2024/04/25 07:19:18;;;;;;;1.95;1.17;;;;;;;;;;5376130;26;20011;-57
2024/04/25 07:21:43;;;;;;;2.65;0.93;;;;;;;;;;5389378;26;20010;-58
2024/04/25 07:24:09;;;;;;;2.22;0.80;;;;;;;;;;5385403;26;20698;-57
2024/04/25 07:26:34;;;;;;;2.00;0.90;;;;;;;;;;5382145;26;20028;-58
2024/04/25 07:28:59;;;;;;;1.27;0.77;;;;;;;;;;5394663;26;19993;-60
2024/04/25 07:31:24;;;;;;;1.85;0.90;;;;;;;;;;5384352;26;20449;-59
2024/04/25 07:33:50;;;;;;;2.25;0.82;;;;;;;;;;5388168;26;20004;-57
2024/04/25 07:36:20;;;;;;;2.40;0.90;;;;;;;;;;5393878;26;20010;-58
2024/04/25 07:38:45;;;;;;;2.10;0.90;;;;;;;;;;5386812;26;20616;-57
2024/04/25 07:41:11;;;;;;;1.83;0.80;;;;;;;;;;5391427;26;20012;-58
2024/04/25 07:43:36;;;;;;;2.60;1.08;;;;;;;;;;5395674;26;19996;-59
2024/04/25 07:46:02;;;;;;;1.95;0.90;;;;;;;;;;5400914;26;20429;-59
2024/04/25 07:48:28;;;;;;;2.00;0.90;;;;;;;;;;5393718;26;20000;-59
2024/04/25 07:50:53;;;;;;;1.95;0.88;;;;;;;;;;5396225;26;20456;-59
2024/04/25 07:53:24;;;;;;;2.28;0.90;;;;;;;;;;5392896;26;20008;-58
2024/04/25 07:55:49;;;;;;;2.83;1.13;;;;;;;;;;5378825;26;20028;-58
2024/04/25 07:58:15;;;;;;;1.60;0.90;;;;;;;;;;5396911;26;20010;-57
2024/04/25 08:00:40;;;;;;;1.35;0.73;;;;;;;;;;5403393;26;20141;-59
2024/04/25 08:03:06;;;;;;;2.15;1.05;;;;;;;;;;5391379;26;19996;-58
2024/04/25 08:05:31;;;;;;;1.88;0.93;;;;;;;;;;5400051;26;20406;-59
2024/04/25 08:07:56;;;;;;;2.78;1.20;;;;;;;;;;5388832;26;20552;-58
2024/04/25 08:10:22;;;;;;;1.58;0.80;;;;;;;;;;5383768;26;20064;-58
2024/04/25 08:12:47;;;;;;;1.48;0.88;;;;;;;;;;5392115;26;20007;-59
2024/04/25 08:15:13;;;;;;;2.67;0.80;;;;;;;;;;5379893;26;19999;-60
2024/04/25 08:17:38;;;;;;;1.90;0.90;;;;;;;;;;5376831;26;20341;-58
2024/04/25 08:20:04;;;;;;;2.47;0.90;;;;;;;;;;5381480;26;20092;-61
2024/04/25 08:22:30;;;;;;;2.47;0.95;;;;;;;;;;5381159;26;20037;-56
2024/04/25 08:24:56;;;;;;;1.58;0.90;;;;;;;;;;5382717;26;20024;-58
2024/04/25 08:27:21;;;;;;;2.78;1.20;;;;;;;;;;5382809;26;20011;-57
2024/04/25 08:29:48;;;;;;;1.75;1.05;;;;;;;;;;5402713;26;20329;-57
2024/04/25 08:32:13;;;;;;;1.70;0.90;;;;;;;;;;5381950;26;20003;-57
2024/04/25 08:34:38;;;;;;;1.73;0.90;;;;;;;;;;5392361;26;20078;-58
2024/04/25 08:37:04;;;;;;;2.35;1.00;;;;;;;;;;5390461;26;20073;-58
2024/04/25 08:39:29;;;;;;;1.30;0.80;;;;;;;;;;5389510;26;20497;-57
2024/04/25 08:41:54;;;;;;;2.83;0.90;;;;;;;;;;5379370;26;20000;-57
2024/04/25 08:44:20;;;;;;;1.85;1.10;;;;;;;;;;5388987;26;19999;-58
2024/04/25 08:46:45;;;;;;;1.65;1.13;;;;;;;;;;5378943;26;20004;-57
2024/04/25 08:49:11;;;;;;;1.80;0.77;;;;;;;;;;5393659;26;20009;-62
2024/04/25 08:51:37;;;;;;;2.00;0.90;;;;;;;;;;5382166;26;20012;-62
2024/04/25 08:54:02;;;;;;;1.98;0.80;;;;;;;;;;5407931;26;20004;-63
2024/04/25 08:56:28;;;;;;;2.58;0.90;;;;;;;;;;5404679;26;20364;-60
2024/04/25 08:58:53;;;;;;;2.38;0.82;;;;;;;;;;5401423;26;20460;-61
2024/04/25 09:01:20;;;;;;;3.42;1.30;;;;;;;;;;5404402;26;20013;-60
2024/04/25 09:03:45;;;;;;;2.75;1.27;;;;;;;;;;5404118;26;20011;-61
2024/04/25 09:06:11;;;;;;;2.00;0.80;;;;;;;;;;5387498;26;20015;-64
2024/04/25 09:08:36;;;;;;;2.15;0.90;;;;;;;;;;5389161;26;20072;-63
2024/04/25 09:11:02;;;;;;;4.18;1.08;;;;;;;;;;5390288;26;19999;-63
2024/04/25 09:13:27;;;;;;;3.25;0.90;;;;;;;;;;5393533;26;20000;-62
2024/04/25 09:15:54;;;;;;;2.30;1.00;;;;;;;;;;5408993;26;20000;-62
2024/04/25 09:18:20;;;;;;;2.25;1.30;;;;;;;;;;5383586;26;20011;-62
2024/04/25 09:20:45;;;;;;;1.80;1.05;;;;;;;;;;5407012;26;19999;-62
2024/04/25 09:23:10;;;;;;;3.53;1.08;;;;;;;;;;5404847;26;20325;-62
2024/04/25 09:25:35;;;;;;;3.13;0.98;;;;;;;;;;5407196;26;20429;-62
2024/04/25 09:28:02;;;;;;;3.92;0.82;;;;;;;;;;5408281;26;20067;-62
2024/04/25 09:30:27;;;;;;;1.55;0.85;;;;;;;;;;5397789;26;19999;-61
2024/04/25 09:32:53;;;;;;;2.83;0.90;;;;;;;;;;5408859;26;20010;-64
2024/04/25 09:35:18;;;;;;;2.85;1.00;;;;;;;;;;5397848;26;20010;-62
2024/04/25 09:37:43;;;;;;;3.45;1.17;;;;;;;;;;5389677;26;20000;-62
2024/04/25 09:40:09;;;;;;;2.55;0.90;;;;;;;;;;5403997;26;20035;-62
2024/04/25 09:42:34;;;;;;;2.05;1.00;;;;;;;;;;5410036;26;20507;-63
2024/04/25 09:45:00;;;;;;;3.65;1.05;;;;;;;;;;5394284;26;20003;-62
2024/04/25 09:47:27;;;;;;;2.38;0.90;;;;;;;;;;5387997;26;20035;-63
2024/04/25 09:49:54;;;;;;;1.27;0.70;;;;;;;;;;5398306;26;20015;-62
2024/04/25 09:52:23;;;;;;;4.10;1.45;;;;;;;;;;5389935;26;20003;-62
2024/04/25 09:54:48;;;;;;;3.65;1.10;;;;;;;;;;5390250;26;20062;-62
2024/04/25 09:57:15;;;;;;;2.13;1.02;;;;;;;;;;5399438;26;19995;-62
2024/04/25 09:59:43;;;;;;;2.92;1.00;;;;;;;;;;5398700;26;20000;-62
2024/04/25 10:02:21;;;;;;;3.58;1.35;;;;;;;;;;5411850;26;21000;-62
2024/04/25 10:04:47;;;;;;;3.67;1.02;;;;;;;;;;5398838;26;20003;-62
2024/04/25 10:07:13;;;;;;;2.63;1.10;;;;;;;;;;5395218;26;20291;-62
2024/04/25 10:09:39;;;;;;;2.63;1.00;;;;;;;;;;5387851;26;20015;-62
2024/04/25 10:12:04;;;;;;;2.10;1.02;;;;;;;;;;5406159;26;20004;-63
2024/04/25 10:14:30;;;;;;;3.15;1.15;;;;;;;;;;5399005;26;20041;-62
2024/04/25 10:16:55;;;;;;;2.63;0.90;;;;;;;;;;5408462;26;20003;-62
2024/04/25 10:19:31;;;;;;;3.28;1.05;;;;;;;;;;5387304;26;20119;-63
2024/04/25 10:21:56;;;;;;;2.17;1.00;;;;;;;;;;5390633;26;20006;-64
2024/04/25 10:24:21;;;;;;;3.65;1.40;;;;;;;;;;5398224;26;20003;-62
2024/04/25 10:26:47;;;;;;;4.88;1.23;;;;;;;;;;5407689;26;19999;-60
2024/04/25 10:29:12;;;;;;;3.88;1.10;;;;;;;;;;5408749;26;20364;-65
2024/04/25 10:31:38;;;;;;;4.75;1.20;;;;;;;;;;5396676;26;20477;-62
2024/04/25 10:34:03;;;;;;;1.77;0.90;;;;;;;;;;5387319;26;20077;-63
2024/04/25 10:36:29;;;;;;;2.03;1.30;;;;;;;;;;5399490;26;19999;-62
2024/04/25 10:38:57;;;;;;;1.95;0.90;;;;;;;;;;5392653;26;20003;-62
2024/04/25 10:41:32;;;;;;;3.08;1.15;;;;;;;;;;5393560;26;20014;-65
2024/04/25 10:43:58;;;;;;;1.85;1.00;;;;;;;;;;5388577;26;20000;-64
2024/04/25 10:46:23;;;;;;;3.97;1.00;;;;;;;;;;5399360;26;20009;-64
2024/04/25 10:48:48;;;;;;;3.13;1.00;;;;;;;;;;5403219;26;20989;-61
2024/04/25 10:51:14;;;;;;;3.25;0.90;;;;;;;;;;5395360;26;20384;-60
2024/04/25 10:53:39;;;;;;;2.08;0.90;;;;;;;;;;5393135;26;20012;-63
2024/04/25 10:56:05;;;;;;;2.40;1.17;;;;;;;;;;5392906;26;19996;-63
2024/04/25 10:58:30;;;;;;;3.10;1.00;;;;;;;;;;5389069;26;20000;-64
2024/04/25 11:00:56;;;;;;;3.80;1.27;;;;;;;;;;5385804;26;20011;-63
2024/04/25 11:03:22;;;;;;;2.00;1.00;;;;;;;;;;5385886;26;20064;-62
2024/04/25 11:05:48;;;;;;;3.63;1.17;;;;;;;;;;5390608;26;20426;-63
2024/04/25 11:08:13;;;;;;;4.13;1.25;;;;;;;;;;5389352;26;20015;-65
2024/04/25 11:10:39;;;;;;;3.38;1.10;;;;;;;;;;5386435;26;20007;-65
2024/04/25 11:13:04;;;;;;;3.08;1.10;;;;;;;;;;5387585;26;20194;-62
2024/04/25 11:15:31;;;;;;;3.53;1.27;;;;;;;;;;5385681;26;20203;-62
2024/04/25 11:17:56;;;;;;;2.97;1.08;;;;;;;;;;5387734;26;20027;-63
2024/04/25 11:20:21;;;;;;;3.35;1.20;;;;;;;;;;5386355;26;20523;-61
2024/04/25 11:22:47;;;;;;;2.13;1.00;;;;;;;;;;5391905;26;19999;-62
2024/04/25 11:25:15;;;;;;;4.43;1.20;;;;;;;;;;5396062;26;20461;-60
2024/04/25 11:27:40;;;;;;;2.55;1.10;;;;;;;;;;5388545;26;20010;-61
2024/04/25 11:30:05;;;;;;;3.05;1.13;;;;;;;;;;5386578;26;19996;-58
2024/04/25 11:32:33;;;;;;;2.58;0.98;;;;;;;;;;5383236;26;20003;-58
2024/04/25 11:35:08;;;;;;;2.30;1.00;;;;;;;;;;5390638;26;20102;-58
2024/04/25 11:37:37;;;;;;;5.15;1.48;;;;;;;;;;5384934;26;21096;-57
2024/04/25 11:40:02;;;;;;;2.28;1.10;;;;;;;;;;5388687;26;19995;-60
2024/04/25 11:42:27;;;;;;;2.35;1.00;;;;;;;;;;5389076;26;20011;-57
2024/04/25 11:44:53;;;;;;;2.90;1.17;;;;;;;;;;5390702;26;20163;-59
2024/04/25 11:47:18;;;;;;;1.75;0.98;;;;;;;;;;5387085;26;20463;-60
2024/04/25 11:49:43;;;;;;;2.47;1.10;;;;;;;;;;5396233;26;20011;-58
2024/04/25 11:52:09;;;;;;;4.60;1.35;;;;;;;;;;5391305;26;20016;-57
2024/04/25 11:54:34;;;;;;;1.50;0.85;;;;;;;;;;5400081;26;19995;-59
2024/04/25 11:57:00;;;;;;;2.58;1.10;;;;;;;;;;5397366;26;20003;-58
2024/04/25 11:59:25;;;;;;;3.50;1.40;;;;;;;;;;5389179;26;20011;-59
2024/04/25 12:01:50;;;;;;;3.22;0.95;;;;;;;;;;5388586;26;20471;-61
2024/04/25 12:04:16;;;;;;;3.55;1.23;;;;;;;;;;5385307;26;20441;-61
2024/04/25 12:06:41;;;;;;;2.35;0.98;;;;;;;;;;5391607;26;20449;-59
2024/04/25 12:09:06;;;;;;;2.40;0.95;;;;;;;;;;5396678;26;20004;-59
2024/04/25 12:11:35;;;;;;;2.33;1.00;;;;;;;;;;5394528;26;20000;-60
2024/04/25 12:14:01;;;;;;;2.20;1.20;;;;;;;;;;5381403;26;20491;-57
2024/04/25 12:16:26;;;;;;;2.22;1.05;;;;;;;;;;5393424;26;20004;-58
2024/04/25 12:18:52;;;;;;;4.00;1.00;;;;;;;;;;5386927;26;20030;-58
2024/04/25 12:21:17;;;;;;;2.22;1.05;;;;;;;;;;5387192;26;20346;-58
2024/04/25 12:23:43;;;;;;;2.78;1.10;;;;;;;;;;5391791;26;20030;-59
2024/04/25 12:26:08;;;;;;;1.95;1.33;;;;;;;;;;5384927;26;20048;-59
2024/04/25 12:28:34;;;;;;;3.10;1.30;;;;;;;;;;5383665;26;20032;-59
2024/04/25 12:30:59;;;;;;;3.85;1.33;;;;;;;;;;5390086;26;20360;-59
2024/04/25 12:33:25;;;;;;;3.90;1.30;;;;;;;;;;5398899;26;20011;-60
2024/04/25 12:35:50;;;;;;;1.95;1.15;;;;;;;;;;5392169;26;20398;-59
2024/04/25 12:38:16;;;;;;;3.78;1.25;;;;;;;;;;5388652;26;20000;-58
2024/04/25 12:40:42;;;;;;;3.08;1.33;;;;;;;;;;5384109;26;20446;-59
2024/04/25 12:43:08;;;;;;;4.75;1.20;;;;;;;;;;5391962;26;20014;-58
2024/04/25 12:45:34;;;;;;;2.75;1.23;;;;;;;;;;5391556;26;20136;-59
2024/04/25 12:48:03;;;;;;;3.67;1.10;;;;;;;;;;5378319;26;20028;-59
2024/04/25 12:50:28;;;;;;;3.72;1.20;;;;;;;;;;5400131;26;20344;-58
2024/04/25 12:52:55;;;;;;;2.30;1.25;;;;;;;;;;5406163;26;19999;-59
2024/04/25 12:55:20;;;;;;;2.58;1.20;;;;;;;;;;5396113;26;20077;-59
2024/04/25 12:57:46;;;;;;;4.30;1.20;;;;;;;;;;5401133;26;20012;-59
2024/04/25 13:00:11;;;;;;;2.30;1.08;;;;;;;;;;5388927;26;20008;-59
2024/04/25 13:02:37;;;;;;;2.97;1.20;;;;;;;;;;5377175;26;20001;-58
2024/04/25 13:05:02;;;;;;;3.00;1.15;;;;;;;;;;5359959;26;20000;-59
2024/04/25 13:07:27;;;;;;;3.67;1.23;;;;;;;;;;5404607;26;20302;-59
2024/04/25 13:09:53;;;;;;;2.28;1.27;;;;;;;;;;5394595;26;20001;-59
2024/04/25 13:12:18;;;;;;;2.38;1.25;;;;;;;;;;5379594;26;20011;-60
2024/04/25 13:14:43;;;;;;;2.30;1.15;;;;;;;;;;5395416;26;20653;-60
2024/04/25 13:17:09;;;;;;;2.30;1.10;;;;;;;;;;5396995;26;20035;-60
2024/04/25 13:19:34;;;;;;;2.15;1.15;;;;;;;;;;5389894;26;20463;-60
2024/04/25 13:22:01;;;;;;;2.90;1.40;;;;;;;;;;5397725;26;20012;-60
2024/04/25 13:24:26;;;;;;;2.63;1.10;;;;;;;;;;5397377;26;20064;-59
2024/04/25 13:26:51;;;;;;;2.38;1.10;;;;;;;;;;5384058;26;20000;-60
2024/04/25 13:29:17;;;;;;;3.05;1.48;;;;;;;;;;5402853;26;20432;-59
2024/04/25 13:31:42;;;;;;;2.97;1.38;;;;;;;;;;5378822;26;20000;-59
2024/04/25 13:34:08;;;;;;;1.92;1.40;;;;;;;;;;5389442;26;20414;-60
2024/04/25 13:36:33;;;;;;;2.25;1.27;;;;;;;;;;5386517;26;20003;-58
2024/04/25 13:38:58;;;;;;;2.17;1.27;;;;;;;;;;5392600;26;20003;-57
2024/04/25 13:41:24;;;;;;;1.95;1.33;;;;;;;;;;5392800;26;20015;-56
2024/04/25 13:43:49;;;;;;;3.13;1.40;;;;;;;;;;5389657;26;20018;-59
2024/04/25 13:46:14;;;;;;;2.25;1.30;;;;;;;;;;5382747;26;20004;-59
2024/04/25 13:48:40;;;;;;;2.33;1.30;;;;;;;;;;5387771;26;20041;-59
2024/04/25 13:51:06;;;;;;;3.47;1.60;;;;;;;;;;5394241;26;20011;-60
2024/04/25 13:53:31;;;;;;;2.65;1.45;;;;;;;;;;5388257;26;20000;-60
2024/04/25 13:55:57;;;;;;;2.67;1.27;;;;;;;;;;5410151;26;20084;-60
2024/04/25 13:58:23;;;;;;;3.80;1.60;;;;;;;;;;5386560;26;20520;-60
2024/04/25 14:00:50;;;;;;;3.47;1.70;;;;;;;;;;5398089;26;20012;-60
2024/04/25 14:03:15;;;;;;;3.05;1.50;;;;;;;;;;5399596;26;20015;-59
2024/04/25 14:05:40;;;;;;;5.13;1.80;;;;;;;;;;5383332;26;20000;-58
2024/04/25 14:08:06;;;;;;;2.75;1.52;;;;;;;;;;5388191;26;20004;-57
2024/04/25 14:10:31;;;;;;;3.58;1.63;;;;;;;;;;5392590;26;20007;-57
2024/04/25 14:12:57;;;;;;;3.22;1.48;;;;;;;;;;5407174;26;20000;-60
2024/04/25 14:15:22;;;;;;;3.00;1.60;;;;;;;;;;5384659;26;20008;-60
2024/04/25 14:17:47;;;;;;;2.22;1.63;;;;;;;;;;5365931;26;19995;-60
2024/04/25 14:20:13;;;;;;;4.57;1.60;;;;;;;;;;5397786;26;20012;-60
2024/04/25 14:22:38;;;;;;;3.80;1.58;;;;;;;;;;5399815;26;20011;-56
2024/04/25 14:30:32;;;;;;;3.30;1.73;;;;;;;;;;5384594;26;20046;-56
2024/04/25 14:32:57;;;;;;;2.88;1.55;;;;;;;;;;5374811;26;20000;-59
2024/04/25 14:35:22;;;;;;;3.50;1.65;;;;;;;;;;5388732;26;20011;-58
2024/04/25 14:37:48;;;;;;;2.60;1.77;;;;;;;;;;5380307;26;20028;-58
2024/04/25 14:40:14;;;;;;;2.72;1.73;;;;;;;;;;5393595;26;20026;-60
2024/04/25 14:42:39;;;;;;;3.38;1.50;;;;;;;;;;5409829;26;20391;-60